Charles Park, Louisiana
Current Conditions -  °F | °C
As of 10:53 AM on Friday 31 Oct 2014 (Local Time) from KAEX Reporting Station
Clear Clear  
Wind Chill: 67°   Ceiling: Unl
Heat Index: 67°   Visibility: 10mi
Dew Point: 47°   Wind: 12mph
Humidity: 49%   Direction: 340°NNW
Pressure: 30.13"   Gusts: NA
Location:  31.2655°N, 92.4705°W
Report Text: KAEX 311553Z 34010KT 10SM CLR 19/08 A3013 RMK AO2 SLP207 T01940083
Loading
Personal Weather Stations






























Interactive Weather Map
Tropical Storm Tracking
New forecast layout! Learn more

10-Day Weather Forecast

Advertisements
Track Severe Weather on mobile